createdAt,value
2022-10-23T00:01:46.638Z,101201.31
2022-10-23T00:04:20.858Z,101210.69
2022-10-23T00:06:50.056Z,101197.72
2022-10-23T00:09:22.293Z,101207.63
2022-10-23T00:11:52.410Z,101193.38
2022-10-23T00:14:23.848Z,101193.38
2022-10-23T00:16:52.336Z,101194.59
2022-10-23T00:19:20.780Z,101193.38
2022-10-23T00:21:49.303Z,101205.94
2022-10-23T00:24:17.840Z,101195.94
2022-10-23T00:26:46.188Z,101200.03
2022-10-23T00:29:14.593Z,101188.78
2022-10-23T00:31:42.996Z,101187.53
2022-10-23T00:34:11.485Z,101187.28
2022-10-23T00:36:39.875Z,101198.38
2022-10-23T00:39:08.241Z,101200.03
2022-10-23T00:41:36.702Z,101195.66
2022-10-23T00:44:30.133Z,101195.25
2022-10-23T00:47:00.128Z,101191.25
2022-10-23T00:49:28.800Z,101192.69
2022-10-23T00:52:01.190Z,101197.50
2022-10-23T00:54:33.528Z,101189.16
2022-10-23T00:57:04.064Z,101187.06
2022-10-23T00:59:33.533Z,101191.66
2022-10-23T01:02:02.317Z,101189.78
2022-10-23T01:04:32.015Z,101178.50
2022-10-23T01:07:19.955Z,101172.06
2022-10-23T01:10:02.043Z,101178.53
2022-10-23T01:12:45.773Z,101182.13
2022-10-23T01:15:22.793Z,101176.06
2022-10-23T01:17:54.179Z,101178.72
2022-10-23T01:20:39.609Z,101172.84
2022-10-23T01:23:38.538Z,101179.09
2022-10-23T01:26:25.164Z,101165.13
2022-10-23T01:29:01.492Z,101166.97
2022-10-23T01:31:42.344Z,101160.72
2022-10-23T01:34:23.585Z,101162.84
2022-10-23T01:36:53.799Z,101159.66
2022-10-23T01:39:31.087Z,101155.69
2022-10-23T01:42:16.423Z,101155.72
2022-10-23T01:44:50.719Z,101140.66
2022-10-23T01:47:23.894Z,101145.25
2022-10-23T01:49:54.462Z,101139.00
2022-10-23T01:52:23.313Z,101138.16
2022-10-23T01:54:55.007Z,101133.81
2022-10-23T01:57:26.865Z,101137.31
2022-10-23T02:00:04.105Z,101129.41
2022-10-23T02:02:33.858Z,101140.22
2022-10-23T02:05:07.516Z,101126.88
2022-10-23T02:07:36.311Z,101136.09
2022-10-23T02:10:06.422Z,101129.41
2022-10-23T02:12:56.016Z,101130.00
2022-10-23T02:15:40.543Z,101118.47
2022-10-23T02:18:09.667Z,101134.09
2022-10-23T02:20:45.818Z,101127.91
2022-10-23T02:23:25.365Z,101128.31
2022-10-23T02:26:04.662Z,101131.88
2022-10-23T02:28:40.418Z,101124.38
2022-10-23T02:31:13.157Z,101121.06
2022-10-23T02:33:43.939Z,101115.41
2022-10-23T02:36:12.712Z,101112.69
2022-10-23T02:38:43.919Z,101105.19
2022-10-23T02:41:18.411Z,101092.09
2022-10-23T02:43:56.917Z,101092.91
2022-10-23T02:47:07.807Z,101081.66
2022-10-23T02:49:47.955Z,101068.69
2022-10-23T02:52:23.356Z,101061.19
2022-10-23T02:55:07.022Z,101052.00
2022-10-23T02:57:44.755Z,101048.63
2022-10-23T03:00:16.805Z,101043.84
2022-10-23T03:03:02.235Z,101042.59
2022-10-23T03:05:34.189Z,101038.19
2022-10-23T03:08:04.897Z,101038.41
2022-10-23T03:10:33.323Z,101033.19
2022-10-23T03:13:01.759Z,101030.47
2022-10-23T03:15:30.162Z,101030.88
2022-10-23T03:17:58.533Z,101029.66
2022-10-23T03:20:26.998Z,101020.69
2022-10-23T03:22:55.373Z,101012.16
2022-10-23T03:25:23.778Z,101012.97
2022-10-23T03:27:52.138Z,101010.88
2022-10-23T03:30:20.554Z,101010.50
2022-10-23T03:32:48.884Z,101013.63
2022-10-23T03:35:19.806Z,101010.06
2022-10-23T03:37:48.223Z,101004.88
2022-10-23T03:40:16.618Z,101010.69
2022-10-23T03:42:44.974Z,101000.06
2022-10-23T03:45:13.353Z,101003.41
2022-10-23T03:47:41.999Z,101004.03
2022-10-23T03:50:11.614Z,100998.81
2022-10-23T03:52:40.959Z,100997.34
2022-10-23T03:55:09.865Z,100996.53
2022-10-23T03:57:38.561Z,100996.09
2022-10-23T04:00:08.076Z,100976.28
2022-10-23T04:02:36.430Z,100970.22
2022-10-23T04:05:05.592Z,100966.69
2022-10-23T04:07:33.999Z,100959.59
2022-10-23T04:10:02.605Z,100960.00
2022-10-23T04:12:31.113Z,100953.31
2022-10-23T04:14:59.464Z,100950.00
2022-10-23T04:20:01.047Z,100951.66
2022-10-23T04:22:29.376Z,100952.28
2022-10-23T04:24:57.699Z,100953.94
2022-10-23T04:27:26.110Z,100962.50
2022-10-23T04:29:56.867Z,100963.34
2022-10-23T04:32:27.416Z,100958.53
2022-10-23T04:34:55.728Z,100956.66
2022-10-23T04:37:25.257Z,100951.25
2022-10-23T04:39:53.815Z,100965.22
2022-10-23T04:42:22.240Z,100963.75
2022-10-23T04:44:50.621Z,100964.81
2022-10-23T04:47:19.028Z,100956.22
2022-10-23T04:49:47.382Z,100949.16
2022-10-23T04:52:16.048Z,100954.16
2022-10-23T04:54:44.434Z,100948.09
2022-10-23T04:57:12.777Z,100938.72
2022-10-23T04:59:41.139Z,100941.00
2022-10-23T05:02:09.475Z,100931.19
2022-10-23T05:04:37.963Z,100947.47
2022-10-23T05:07:06.304Z,100942.06
2022-10-23T05:09:34.749Z,100939.13
2022-10-23T05:12:03.123Z,100936.63
2022-10-23T05:14:31.453Z,100933.28
2022-10-23T05:17:07.484Z,100930.38
2022-10-23T05:19:42.168Z,100930.56
2022-10-23T05:22:12.179Z,100921.19
2022-10-23T05:24:40.536Z,100928.28
2022-10-23T05:27:08.835Z,100921.19
2022-10-23T05:29:37.173Z,100927.47
2022-10-23T05:32:07.255Z,100926.81
2022-10-23T05:34:38.289Z,100918.88
2022-10-23T05:37:09.576Z,100912.63
2022-10-23T05:39:38.232Z,100916.38
2022-10-23T05:42:06.908Z,100911.16
2022-10-23T05:44:35.437Z,100915.75
2022-10-23T05:47:03.902Z,100907.00
2022-10-23T05:49:32.252Z,100905.13
2022-10-23T05:52:00.605Z,100904.50
2022-10-23T05:54:28.952Z,100911.16
2022-10-23T05:56:57.456Z,100905.94
2022-10-23T05:59:25.837Z,100903.88
2022-10-23T06:01:54.246Z,100898.66
2022-10-23T06:04:22.651Z,100893.84
2022-10-23T06:06:51.009Z,100900.75
2022-10-23T06:09:19.477Z,100893.44
2022-10-23T06:11:47.851Z,100891.97
2022-10-23T06:14:16.219Z,100893.88
2022-10-23T06:16:44.995Z,100883.41
2022-10-23T06:19:13.334Z,100890.94
2022-10-23T06:21:41.661Z,100890.31
2022-10-23T06:24:10.893Z,100882.81
2022-10-23T06:26:40.196Z,100880.28
2022-10-23T06:29:08.586Z,100880.31
2022-10-23T06:31:38.033Z,100881.13
2022-10-23T06:34:06.527Z,100875.69
2022-10-23T06:36:35.578Z,100868.59
2022-10-23T06:39:05.106Z,100874.03
2022-10-23T06:41:33.565Z,100864.84
2022-10-23T06:44:02.081Z,100855.84
2022-10-23T06:46:33.032Z,100857.94
2022-10-23T06:49:01.509Z,100854.41
2022-10-23T06:51:29.995Z,100854.19
2022-10-23T06:53:58.575Z,100861.03
2022-10-23T06:56:29.135Z,100850.22
2022-10-23T06:58:58.558Z,100838.53
2022-10-23T07:01:27.125Z,100841.69
2022-10-23T07:03:55.704Z,100847.69
2022-10-23T07:06:24.056Z,100855.59
2022-10-23T07:08:52.514Z,100854.13
2022-10-23T07:11:21.029Z,100847.03
2022-10-23T07:13:49.404Z,100849.53
2022-10-23T07:16:20.945Z,100845.97
2022-10-23T07:18:58.637Z,100844.31
2022-10-23T07:21:32.117Z,100840.97
2022-10-23T07:24:02.290Z,100834.06
2022-10-23T07:26:32.792Z,100833.44
2022-10-23T07:29:01.332Z,100830.47
2022-10-23T07:31:29.807Z,100828.19
2022-10-23T07:33:58.308Z,100835.09
2022-10-23T07:36:26.652Z,100822.38
2022-10-23T07:38:55.962Z,100825.03
2022-10-23T07:41:25.306Z,100827.94
2022-10-23T07:43:53.737Z,100823.19
2022-10-23T07:46:22.157Z,100821.25
2022-10-23T07:48:50.570Z,100822.53
2022-10-23T07:51:18.953Z,100816.69
2022-10-23T07:53:47.648Z,100820.84
2022-10-23T07:56:20.921Z,100816.63
2022-10-23T07:58:50.732Z,100815.13
2022-10-23T08:01:23.814Z,100819.31
2022-10-23T08:03:52.332Z,100821.81
2022-10-23T08:06:20.759Z,100823.28
2022-10-23T08:08:50.342Z,100821.59
2022-10-23T08:11:25.780Z,100817.41
2022-10-23T08:13:55.857Z,100819.03
2022-10-23T08:16:24.999Z,100816.75
2022-10-23T08:18:53.430Z,100816.53
2022-10-23T08:21:21.949Z,100813.41
2022-10-23T08:23:53.390Z,100809.53
2022-10-23T08:26:22.079Z,100805.63
2022-10-23T08:28:51.409Z,100799.75
2022-10-23T08:31:21.176Z,100808.50
2022-10-23T08:36:21.349Z,100795.03
2022-10-23T08:38:53.538Z,100787.28
2022-10-23T08:41:35.060Z,100779.53
2022-10-23T08:44:22.931Z,100783.72
2022-10-23T08:47:08.221Z,100775.94
2022-10-23T08:49:43.200Z,100780.63
2022-10-23T08:52:16.652Z,100773.69
2022-10-23T08:55:22.569Z,100774.88
2022-10-23T08:58:40.632Z,100773.66
2022-10-23T09:01:32.547Z,100756.72
2022-10-23T09:04:02.337Z,100753.13
2022-10-23T09:06:35.569Z,100758.53
2022-10-23T09:09:41.449Z,100761.13
2022-10-23T09:12:17.523Z,100752.59
2022-10-23T09:15:16.115Z,100752.28
2022-10-23T09:17:45.457Z,100751.06
2022-10-23T09:20:31.429Z,100748.81
2022-10-23T09:23:23.707Z,100743.16
2022-10-23T09:25:56.687Z,100736.81
2022-10-23T09:28:30.425Z,100727.00
2022-10-23T09:31:10.656Z,100726.16
2022-10-23T09:33:39.880Z,100718.41
2022-10-23T09:36:20.792Z,100698.91
2022-10-23T09:38:51.999Z,100692.41
2022-10-23T09:41:28.516Z,100701.03
2022-10-23T09:44:20.361Z,100694.50
2022-10-23T09:46:54.364Z,100703.97
2022-10-23T09:49:23.994Z,100699.81
2022-10-23T09:52:04.471Z,100703.44
2022-10-23T09:54:39.389Z,100704.69
2022-10-23T09:57:29.721Z,100697.09
2022-10-23T10:00:21.064Z,100685.75
2022-10-23T10:03:02.697Z,100682.72
2022-10-23T10:05:34.300Z,100671.25
2022-10-23T10:08:20.752Z,100666.75
2022-10-23T10:10:55.736Z,100664.81
2022-10-23T10:13:33.235Z,100656.88
2022-10-23T10:16:33.768Z,100656.09
2022-10-23T10:19:23.977Z,100643.78
2022-10-23T10:22:31.174Z,100633.25
2022-10-23T10:25:09.430Z,100634.25
2022-10-23T10:27:52.837Z,100638.13
2022-10-23T10:30:25.232Z,100654.84
2022-10-23T10:33:14.516Z,100655.00
2022-10-23T10:36:01.088Z,100649.56
2022-10-23T10:38:44.543Z,100640.56
2022-10-23T10:41:44.978Z,100629.56
2022-10-23T10:44:23.839Z,100631.19
2022-10-23T10:47:05.513Z,100616.41
2022-10-23T10:49:55.734Z,100620.09
2022-10-23T10:53:01.680Z,100618.25
2022-10-23T10:55:40.879Z,100600.63
2022-10-23T10:58:16.231Z,100586.75
2022-10-23T11:00:49.628Z,100594.69
2022-10-23T11:03:42.406Z,100608.31
2022-10-23T11:06:25.662Z,100583.19
2022-10-23T11:09:09.270Z,100598.09
2022-10-23T11:11:43.513Z,100595.97
2022-10-23T11:14:18.738Z,100602.81
2022-10-23T11:16:51.405Z,100604.69
2022-10-23T11:19:36.009Z,100606.81
2022-10-23T11:22:22.768Z,100601.00
2022-10-23T11:25:06.496Z,100587.38
2022-10-23T11:27:53.559Z,100579.41
2022-10-23T11:30:46.846Z,100576.06
2022-10-23T11:33:34.932Z,100562.81
2022-10-23T11:36:14.138Z,100556.28
2022-10-23T11:38:46.335Z,100556.94
2022-10-23T11:41:27.156Z,100545.41
2022-10-23T11:44:03.423Z,100551.28
2022-10-23T11:46:38.920Z,100535.00
2022-10-23T11:49:20.859Z,100530.00
2022-10-23T11:52:00.639Z,100533.22
2022-10-23T11:54:28.989Z,100535.66
2022-10-23T11:57:11.692Z,100528.66
2022-10-23T11:59:40.044Z,100531.38
2022-10-23T12:02:28.789Z,100527.50
2022-10-23T12:05:01.439Z,100529.06
2022-10-23T12:07:37.195Z,100527.34
2022-10-23T12:10:25.006Z,100512.94
2022-10-23T12:13:03.724Z,100510.84
2022-10-23T12:15:34.828Z,100513.44
2022-10-23T12:18:30.690Z,100525.03
2022-10-23T12:21:04.603Z,100518.91
2022-10-23T12:24:08.921Z,100499.91
2022-10-23T12:26:50.533Z,100496.66
2022-10-23T12:29:28.004Z,100491.28
2022-10-23T12:32:21.224Z,100493.25
2022-10-23T12:35:08.055Z,100482.34
2022-10-23T12:37:45.231Z,100469.09
2022-10-23T12:40:13.708Z,100460.66
2022-10-23T12:42:52.200Z,100460.78
2022-10-23T12:45:24.943Z,100456.47
2022-10-23T12:47:53.693Z,100448.19
2022-10-23T12:50:30.145Z,100448.69
2022-10-23T12:53:01.337Z,100448.53
2022-10-23T12:55:57.398Z,100445.41
2022-10-23T12:58:32.187Z,100444.19
2022-10-23T13:01:04.641Z,100432.13
2022-10-23T13:03:34.913Z,100431.41
2022-10-23T13:06:03.833Z,100428.50
2022-10-23T13:08:46.817Z,100429.66
2022-10-23T13:11:18.735Z,100412.91
2022-10-23T13:13:49.277Z,100414.59
2022-10-23T13:16:20.637Z,100409.25
2022-10-23T13:18:49.776Z,100406.16
2022-10-23T13:21:22.497Z,100400.44
2022-10-23T13:23:52.596Z,100390.38
2022-10-23T13:26:34.291Z,100383.94
2022-10-23T13:29:07.435Z,100380.19
2022-10-23T13:31:37.328Z,100383.50
2022-10-23T13:34:15.131Z,100371.88
2022-10-23T13:36:54.532Z,100381.38
2022-10-23T13:39:25.580Z,100357.56
2022-10-23T13:41:54.270Z,100359.00
2022-10-23T13:44:24.095Z,100359.38
2022-10-23T13:46:52.817Z,100362.88
2022-10-23T13:49:22.387Z,100352.59
2022-10-23T13:51:54.224Z,100355.63
2022-10-23T13:54:24.097Z,100360.47
2022-10-23T13:56:54.086Z,100363.88
2022-10-23T13:59:23.559Z,100362.88
2022-10-23T14:01:52.467Z,100367.22
2022-10-23T14:04:21.215Z,100367.97
2022-10-23T14:06:49.618Z,100356.22
2022-10-23T14:09:18.603Z,100351.38
2022-10-23T14:11:47.896Z,100354.13
2022-10-23T14:14:17.392Z,100343.44
2022-10-23T14:16:45.863Z,100347.50
2022-10-23T14:19:14.334Z,100353.31
2022-10-23T14:21:42.768Z,100345.09
2022-10-23T14:24:11.227Z,100347.31
2022-10-23T14:26:39.551Z,100348.34
2022-10-23T14:29:17.776Z,100352.81
2022-10-23T14:31:51.329Z,100367.28
2022-10-23T14:34:20.004Z,100351.94
2022-10-23T14:36:50.129Z,100353.81
2022-10-23T14:39:19.517Z,100365.28
2022-10-23T14:41:47.857Z,100350.09
2022-10-23T14:44:17.332Z,100347.63
2022-10-23T14:46:45.735Z,100346.38
2022-10-23T14:49:14.266Z,100342.50
2022-10-23T14:51:42.691Z,100337.13
2022-10-23T14:54:11.020Z,100334.78
2022-10-23T14:56:40.802Z,100335.84
2022-10-23T14:59:10.673Z,100322.69
2022-10-23T15:01:45.109Z,100324.13
2022-10-23T15:04:14.965Z,100319.25
2022-10-23T15:06:44.264Z,100318.34
2022-10-23T15:09:14.098Z,100318.34
2022-10-23T15:11:42.765Z,100315.84
2022-10-23T15:14:11.655Z,100311.75
2022-10-23T15:16:42.934Z,100306.97
2022-10-23T15:19:17.089Z,100309.13
2022-10-23T15:21:47.815Z,100304.47
2022-10-23T15:24:17.225Z,100304.69
2022-10-23T15:26:45.648Z,100304.34
2022-10-23T15:29:15.013Z,100308.16
2022-10-23T15:31:46.811Z,100303.53
2022-10-23T15:34:21.267Z,100302.94
2022-10-23T15:36:49.953Z,100293.31
2022-10-23T15:39:21.828Z,100293.84
2022-10-23T15:41:52.499Z,100285.91
2022-10-23T15:44:23.918Z,100276.38
2022-10-23T15:46:52.387Z,100276.94
2022-10-23T15:49:20.781Z,100273.06
2022-10-23T15:51:49.221Z,100272.75
2022-10-23T15:54:19.569Z,100260.47
2022-10-23T15:56:51.257Z,100249.28
2022-10-23T15:59:22.344Z,100224.91
2022-10-23T16:01:51.195Z,100219.59
2022-10-23T16:04:20.036Z,100218.47
2022-10-23T16:06:48.907Z,100193.31
2022-10-23T16:09:17.578Z,100187.25
2022-10-23T16:11:46.057Z,100197.97
2022-10-23T16:14:16.567Z,100209.25
2022-10-23T16:16:45.196Z,100201.59
2022-10-23T16:19:13.756Z,100193.38
2022-10-23T16:21:42.407Z,100196.56
2022-10-23T16:24:11.220Z,100200.66
2022-10-23T16:26:39.777Z,100220.63
2022-10-23T16:29:09.634Z,100225.03
2022-10-23T16:31:37.986Z,100227.44
2022-10-23T16:34:06.809Z,100224.97
2022-10-23T16:36:35.389Z,100242.47
2022-10-23T16:39:04.336Z,100235.91
2022-10-23T16:41:32.747Z,100250.84
2022-10-23T16:44:01.580Z,100237.50
2022-10-23T16:46:31.684Z,100219.91
2022-10-23T16:49:00.019Z,100212.81
2022-10-23T16:51:30.272Z,100217.13
2022-10-23T16:53:59.352Z,100223.91
2022-10-23T16:56:29.286Z,100219.81
2022-10-23T17:01:30.879Z,100213.25
2022-10-23T17:03:59.739Z,100213.00
2022-10-23T17:06:31.075Z,100215.16
2022-10-23T17:09:00.918Z,100202.59
2022-10-23T17:11:34.766Z,100203.69
2022-10-23T17:14:11.245Z,100201.97
2022-10-23T17:16:44.560Z,100224.94
2022-10-23T17:19:20.761Z,100222.41
2022-10-23T17:21:50.288Z,100214.56
2022-10-23T17:24:19.242Z,100217.03
2022-10-23T17:26:48.476Z,100217.38
2022-10-23T17:29:17.005Z,100219.56
2022-10-23T17:31:48.305Z,100241.53
2022-10-23T17:34:20.212Z,100244.75
2022-10-23T17:36:52.936Z,100245.94
2022-10-23T17:39:24.627Z,100228.97
2022-10-23T17:41:53.360Z,100224.63
2022-10-23T17:44:21.957Z,100235.34
2022-10-23T17:46:54.407Z,100234.34
2022-10-23T17:49:24.092Z,100234.69
2022-10-23T17:51:58.585Z,100235.69
2022-10-23T17:54:27.480Z,100234.72
2022-10-23T17:56:56.064Z,100235.81
2022-10-23T17:59:24.743Z,100228.56
2022-10-23T18:01:53.400Z,100212.91
2022-10-23T18:04:22.065Z,100220.94
2022-10-23T18:06:53.233Z,100222.53
2022-10-23T18:09:23.741Z,100223.81
2022-10-23T18:11:53.553Z,100230.53
2022-10-23T18:14:25.132Z,100228.38
2022-10-23T18:16:55.854Z,100219.88
2022-10-23T18:19:24.369Z,100226.78
2022-10-23T18:21:53.796Z,100227.84
2022-10-23T18:24:22.461Z,100226.28
2022-10-23T18:26:50.864Z,100218.78
2022-10-23T18:29:21.203Z,100215.06
2022-10-23T18:31:49.754Z,100210.34
2022-10-23T18:34:23.901Z,100201.97
2022-10-23T18:36:54.084Z,100196.22
2022-10-23T18:39:25.439Z,100188.19
2022-10-23T18:41:57.069Z,100186.91
2022-10-23T18:44:28.889Z,100193.47
2022-10-23T18:46:59.227Z,100202.22
2022-10-23T18:49:28.295Z,100209.91
2022-10-23T18:51:58.197Z,100214.31
2022-10-23T18:54:26.571Z,100209.25
2022-10-23T18:56:55.151Z,100204.00
2022-10-23T18:59:23.583Z,100216.19
2022-10-23T19:01:52.197Z,100231.75
2022-10-23T19:04:20.720Z,100242.97
2022-10-23T19:06:50.106Z,100221.53
2022-10-23T19:09:18.557Z,100237.00
2022-10-23T19:11:46.959Z,100295.19
2022-10-23T19:14:15.450Z,100362.00
2022-10-23T19:17:08.162Z,100357.84
2022-10-23T19:19:51.254Z,100356.03
2022-10-23T19:22:19.838Z,100368.50
2022-10-23T19:24:58.590Z,100356.00
2022-10-23T19:27:27.107Z,100325.53
2022-10-23T19:29:56.323Z,100315.03
2022-10-23T19:32:24.737Z,100323.94
2022-10-23T19:34:54.414Z,100326.16
2022-10-23T19:37:26.619Z,100325.34
2022-10-23T19:39:55.020Z,100330.22
2022-10-23T19:42:23.492Z,100319.13
2022-10-23T19:44:51.876Z,100314.38
2022-10-23T19:47:20.257Z,100323.78
2022-10-23T19:49:51.679Z,100283.28
2022-10-23T19:52:22.177Z,100267.22
2022-10-23T19:54:50.827Z,100276.16
2022-10-23T19:57:22.519Z,100285.41
2022-10-23T19:59:51.978Z,100292.09
2022-10-23T20:02:20.801Z,100291.41
2022-10-23T20:04:51.809Z,100316.88
2022-10-23T20:07:20.152Z,100335.59
2022-10-23T20:09:48.899Z,100356.66
2022-10-23T20:12:17.329Z,100367.69
2022-10-23T20:14:46.741Z,100330.56
2022-10-23T20:17:15.164Z,100330.03
2022-10-23T20:19:44.599Z,100336.84
2022-10-23T20:22:12.908Z,100317.03
2022-10-23T20:24:42.287Z,100318.28
2022-10-23T20:27:13.646Z,100327.72
2022-10-23T20:29:42.598Z,100325.69
2022-10-23T20:32:11.725Z,100311.16
2022-10-23T20:34:40.157Z,100314.94
2022-10-23T20:37:08.604Z,100319.19
2022-10-23T20:39:39.069Z,100340.34
2022-10-23T20:42:08.539Z,100327.91
2022-10-23T20:44:36.892Z,100327.56
2022-10-23T20:47:05.997Z,100313.03
2022-10-23T20:49:34.337Z,100318.16
2022-10-23T20:52:04.384Z,100322.53
2022-10-23T20:54:33.049Z,100318.91
2022-10-23T20:57:01.648Z,100322.34
2022-10-23T20:59:30.341Z,100325.56
2022-10-23T21:01:58.731Z,100325.78
2022-10-23T21:04:28.675Z,100313.28
2022-10-23T21:07:10.057Z,100311.38
2022-10-23T21:09:39.610Z,100308.66
2022-10-23T21:12:08.998Z,100301.34
2022-10-23T21:14:37.744Z,100309.94
2022-10-23T21:17:06.224Z,100310.66
2022-10-23T21:19:35.787Z,100308.13
2022-10-23T21:22:04.172Z,100304.03
2022-10-23T21:24:32.636Z,100299.19
2022-10-23T21:27:01.046Z,100294.66
2022-10-23T21:29:29.491Z,100294.22
2022-10-23T21:32:01.398Z,100291.50
2022-10-23T21:34:30.294Z,100291.38
2022-10-23T21:37:14.993Z,100291.59
2022-10-23T21:39:44.165Z,100289.75
2022-10-23T21:42:13.951Z,100284.06
2022-10-23T21:44:42.368Z,100274.72
2022-10-23T21:47:10.945Z,100277.78
2022-10-23T21:49:39.316Z,100286.06
2022-10-23T21:52:07.807Z,100277.41
2022-10-23T21:54:36.295Z,100288.41
2022-10-23T21:57:04.725Z,100287.91
2022-10-23T21:59:36.101Z,100284.16
2022-10-23T22:02:04.991Z,100290.16
2022-10-23T22:04:33.474Z,100292.88
2022-10-23T22:07:05.317Z,100293.13
2022-10-23T22:09:34.445Z,100297.06
2022-10-23T22:12:02.997Z,100294.69
2022-10-23T22:14:31.425Z,100291.50
2022-10-23T22:16:59.850Z,100292.66
2022-10-23T22:19:28.402Z,100292.03
2022-10-23T22:21:58.021Z,100292.75
2022-10-23T22:24:26.764Z,100281.47
2022-10-23T22:26:56.336Z,100293.13
2022-10-23T22:29:29.256Z,100283.06
2022-10-23T22:31:58.265Z,100277.63
2022-10-23T22:37:18.224Z,100282.53
2022-10-23T22:39:50.152Z,100270.16
2022-10-23T22:42:19.956Z,100270.09
2022-10-23T22:44:48.456Z,100268.19
2022-10-23T22:47:17.079Z,100274.31
2022-10-23T22:49:45.518Z,100266.47
2022-10-23T22:52:13.881Z,100258.56
2022-10-23T22:54:42.249Z,100261.53
2022-10-23T22:57:10.669Z,100254.06
2022-10-23T22:59:39.032Z,100260.50
2022-10-23T23:02:08.308Z,100246.16
2022-10-23T23:04:38.386Z,100246.31
2022-10-23T23:07:10.639Z,100249.41
2022-10-23T23:09:43.788Z,100244.94
2022-10-23T23:12:13.610Z,100239.66
2022-10-23T23:14:42.947Z,100238.03
2022-10-23T23:17:11.727Z,100239.56
2022-10-23T23:19:40.187Z,100228.28
2022-10-23T23:22:08.638Z,100243.56
2022-10-23T23:24:36.997Z,100243.00
2022-10-23T23:27:05.421Z,100245.09
2022-10-23T23:29:33.858Z,100240.63
2022-10-23T23:32:02.270Z,100239.69
2022-10-23T23:34:30.639Z,100240.13
2022-10-23T23:36:59.029Z,100238.50
2022-10-23T23:39:28.528Z,100249.13
2022-10-23T23:41:57.132Z,100240.28
2022-10-23T23:44:25.595Z,100238.47
2022-10-23T23:46:54.049Z,100245.72
2022-10-23T23:49:22.528Z,100236.50
2022-10-23T23:51:52.556Z,100234.13
2022-10-23T23:54:20.985Z,100245.38
2022-10-23T23:56:49.281Z,100247.88
2022-10-23T23:59:17.680Z,100243.25
